EFHKEFJY

Guest
Details From EFHK - Helsinki Vantaa
To EFJY - Jyvaskyla
Flight Number -
Tags generated
Created
Modified
Stats Distance 127 nm / 234 km
Max Altitude 11,700 ft / 3,566 m
Waypoints 3
Social Downloads 6
Likes 0
Share VATSIM

Download

Looking for another format? Having issues loading an existing format? Contact us
Advertisement - Login to hide

Notes

Basic altitude profile: - Ascent Rate: 2500ft/min - Ascent Speed: 250kts - Cruise Altitude: 35000ft - Cruise Speed: 420kts - Descent Rate: 1500ft/min - Descent Speed: 250kts

Route

EFHK ANT EFJY

ID Type Via Altitude Latitude Longitude Leg Dist Tot Dist Heading (true) Name
O EFHK APT - 0 ft / 0 m 60.32057˚ 24.95267˚ - 0 nm - Helsinki Vantaa
ANT VOR - 11,700 ft / 3,566 m 60.86301˚ 25.12682˚ 32 nm 32 nm 9° / 9° ANTONI VOR-DME
O EFJY APT - 0 ft / 0 m 62.39945˚ 25.67825˚ 93 nm 126 nm 9° / 10° Jyvaskyla

Altitude Profile

Advertisement - Login to hide

EFHK

Details ICAO EFHK (HEL)
Name Helsinki Vantaa
Region Finland
Timezone Europe/Helsinki (UTC+3.0)
Stats Elevation 179 ft / 55 m (AMSL)
Location 60.320569° 24.952668°
Runways 3
Magnetic Variation 9.025° E

METAR

Not found

TAF

TAF EFHK 280231Z 2803/2903 VRB02KT CAVOK BECMG 2809/2811 15010KT BECMG 2818/2820 VRB02KT

Decode

Departure Runways

ID Width Length Bearing (true) Bearing (mag) Surface Threshold Offset Overrun Length
04L 197 ft / 60 m 9,817 ft / 2,992 m 47.43° 38.41° Asphalt 800 ft / 244 m 0 ft / 0 m
04R 197 ft / 60 m 10,472 ft / 3,192 m 47.46° 38.44° Asphalt 262 ft / 80 m 0 ft / 0 m
15 197 ft / 60 m 9,497 ft / 2,895 m 153.08° 144.06° Asphalt 0 ft / 0 m 198 ft / 60 m
22L 197 ft / 60 m 10,472 ft / 3,192 m 227.50° 218.48° Asphalt 0 ft / 0 m 197 ft / 60 m
22R 197 ft / 60 m 9,817 ft / 2,992 m 227.46° 218.44° Asphalt 912 ft / 278 m 0 ft / 0 m
33 197 ft / 60 m 9,497 ft / 2,895 m 333.10° 324.08° Asphalt 0 ft / 0 m 197 ft / 60 m

EFJY

Details ICAO EFJY (JYV)
Name Jyvaskyla
Region Finland
Timezone Europe/Helsinki (UTC+3.0)
Stats Elevation 459 ft / 140 m (AMSL)
Location 62.399451° 25.678250°
Runways 1
Magnetic Variation 9.991° E

METAR

Not found

TAF

TAF EFJY 280223Z 2803/2903 04002KT CAVOK= TAF EFKU 280225Z 2803/2903 31003KT CAVOK

Decode

Destination Runways

ID Width Length Bearing (true) Bearing (mag) Surface Threshold Offset Overrun Length
12 197 ft / 60 m 8,511 ft / 2,594 m 133.97° 123.98° Asphalt 0 ft / 0 m 295 ft / 90 m
30 197 ft / 60 m 8,511 ft / 2,594 m 314.00° 304.01° Asphalt 0 ft / 0 m 295 ft / 90 m

Approach Navaids

Runway Type Ident Frequency Range Bearing (true) Bearing (mag) Slope Elevation
30 Localiser JY 110.90 MHz 18 nm / 33 km 313.96° 303.97° - 459 ft / 140 m (AMSL)
30 Glidescope JY 110.90 MHz 10 nm / 19 km 313.98° 303.99° 3.00° 459 ft / 140 m (AMSL)
30 DME JY 110.90 MHz 18 nm / 33 km - - - 459 ft / 140 m (AMSL)

Popular Alternatives